createdAt,value
2018-11-04T20:14:15.310Z,1002.53
2018-11-04T20:15:29.458Z,1002.55
2018-11-04T20:16:44.341Z,1002.56
2018-11-04T20:17:58.334Z,1002.59
2018-11-04T20:19:12.784Z,1002.53
2018-11-04T20:20:27.738Z,1002.5
2018-11-04T20:21:41.724Z,1002.54
2018-11-04T20:22:55.679Z,1002.52
2018-11-04T20:24:09.527Z,1002.54
2018-11-04T20:25:22.925Z,1002.56
2018-11-04T20:26:38.040Z,1002.54
2018-11-04T20:27:52.122Z,1002.53
2018-11-04T20:29:06.594Z,1002.53
2018-11-04T20:30:35.324Z,1002.47
2018-11-04T20:31:49.204Z,1002.46
2018-11-04T20:33:04.079Z,1002.39
2018-11-04T20:34:18.628Z,1002.41
2018-11-04T20:35:32.967Z,1002.42
2018-11-04T20:36:47.053Z,1002.45
2018-11-04T20:38:01.463Z,1002.46
2018-11-04T20:39:16.527Z,1002.34
2018-11-04T20:40:59.758Z,1002.35
2018-11-04T20:42:13.925Z,1002.4
2018-11-04T20:43:28.034Z,1002.32
2018-11-04T20:44:42.423Z,1002.3
2018-11-04T20:46:11.547Z,1002.3
2018-11-04T20:47:25.708Z,1002.34
2018-11-04T20:48:39.805Z,1002.25
2018-11-04T20:49:53.912Z,1002.25
2018-11-04T20:51:07.619Z,1002.24
2018-11-04T20:52:22.244Z,1002.16
2018-11-04T20:53:37.095Z,1002.17
2018-11-04T20:54:50.664Z,1002.13
2018-11-04T20:56:05.052Z,1002.16
2018-11-04T20:57:18.704Z,1002.09
2018-11-04T20:58:33.675Z,1002.1
2018-11-04T20:59:49.204Z,1002.06
2018-11-04T21:01:03.932Z,1002.13
2018-11-04T21:02:17.825Z,1002.11
2018-11-04T21:03:33.637Z,1002.09
2018-11-04T21:04:48.581Z,1002.09
2018-11-04T21:06:02.699Z,1002.04
2018-11-04T21:07:32.337Z,1002.04
2018-11-04T21:08:47.210Z,1001.97
2018-11-04T21:10:01.490Z,1001.88
2018-11-04T21:11:16.023Z,1001.87
2018-11-04T21:12:30.666Z,1001.9
2018-11-04T21:13:44.555Z,1001.79
2018-11-04T21:14:58.753Z,1001.74
2018-11-04T21:16:13.511Z,1001.76
2018-11-04T21:17:29.184Z,1001.75
2018-11-04T21:18:43.762Z,1001.72
2018-11-04T21:19:58.449Z,1001.81
2018-11-04T21:21:12.730Z,1001.84
2018-11-04T21:22:27.083Z,1001.87
2018-11-04T21:23:55.808Z,1001.89
2018-11-04T21:25:10.160Z,1001.86
2018-11-04T21:26:26.014Z,1001.77
2018-11-04T21:27:40.089Z,1001.73
2018-11-04T21:28:54.790Z,1001.72
2018-11-04T21:30:09.745Z,1001.71
2018-11-04T21:31:23.774Z,1001.73
2018-11-04T21:32:37.897Z,1001.74
2018-11-04T21:33:51.983Z,1001.7
2018-11-04T21:35:06.032Z,1001.66
2018-11-04T21:36:20.437Z,1001.64
2018-11-04T21:37:36.176Z,1001.6
2018-11-04T22:27:27.784Z,1001.46
2018-11-04T22:28:41.333Z,1001.48
2018-11-04T22:29:55.354Z,1001.46
2018-11-04T22:31:08.963Z,1001.45
2018-11-04T22:32:22.995Z,1001.44
2018-11-04T22:33:37.373Z,1001.41
2018-11-04T22:34:51.237Z,1001.36
2018-11-04T22:36:05.048Z,1001.34
2018-11-04T22:37:19.077Z,1001.36
2018-11-04T22:38:32.891Z,1001.4
2018-11-04T22:39:46.949Z,1001.4
2018-11-04T22:41:00.769Z,1001.39
2018-11-04T22:42:14.959Z,1001.43
2018-11-04T22:43:28.965Z,1001.4
2018-11-04T22:44:42.517Z,1001.44
2018-11-04T22:45:56.547Z,1001.44
2018-11-04T22:47:10.604Z,1001.43
2018-11-04T22:48:23.919Z,1001.4
2018-11-04T22:49:38.243Z,1001.42
2018-11-04T22:50:52.304Z,1001.43
2018-11-04T22:52:06.463Z,1001.46
2018-11-04T22:53:20.732Z,1001.47
2018-11-04T22:54:34.540Z,1001.43
2018-11-04T22:55:48.350Z,1001.39
2018-11-04T22:57:02.865Z,1001.4
2018-11-04T22:58:17.171Z,1001.33
2018-11-04T22:59:31.271Z,1001.3
2018-11-04T23:00:45.400Z,1001.3
2018-11-04T23:01:59.745Z,1001.28
2018-11-04T23:03:13.551Z,1001.3
2018-11-04T23:04:27.690Z,1001.26
2018-11-04T23:05:41.778Z,1001.24
2018-11-04T23:06:55.803Z,1001.16
2018-11-04T23:08:09.669Z,1001.12
2018-11-04T23:09:23.713Z,1001.13
2018-11-04T23:10:37.847Z,1001.11
2018-11-04T23:11:51.963Z,1001.09
2018-11-04T23:13:06.263Z,1001.06
2018-11-04T23:14:19.825Z,1001.01
2018-11-04T23:15:34.002Z,1001
2018-11-04T23:16:48.511Z,1000.93
2018-11-04T23:18:03.002Z,1000.95
2018-11-04T23:19:17.291Z,1000.93
2018-11-04T23:20:31.513Z,1000.92
2018-11-04T23:22:00.358Z,1000.88
2018-11-04T23:23:14.958Z,1000.86
2018-11-04T23:24:42.989Z,1000.87
2018-11-04T23:25:57.007Z,1000.84
2018-11-04T23:27:11.325Z,1000.87
2018-11-04T23:28:25.264Z,1000.84
2018-11-04T23:29:38.891Z,1000.83
2018-11-04T23:30:52.760Z,1000.79
2018-11-04T23:32:06.690Z,1000.69
2018-11-04T23:33:19.978Z,1000.71
2018-11-04T23:34:34.030Z,1000.7
2018-11-04T23:35:48.576Z,1000.71
2018-11-04T23:37:02.660Z,1000.78
2018-11-04T23:38:16.688Z,1000.75
2018-11-04T23:39:30.718Z,1000.73
2018-11-04T23:40:44.771Z,1000.66
2018-11-04T23:41:58.856Z,1000.61
2018-11-04T23:43:12.427Z,1000.6
2018-11-04T23:44:26.699Z,1000.56
2018-11-04T23:45:40.960Z,1000.56
2018-11-04T23:46:54.511Z,1000.53
2018-11-04T23:48:09.017Z,1000.53
2018-11-04T23:49:23.079Z,1000.56
2018-11-04T23:50:37.342Z,1000.66
2018-11-04T23:51:51.373Z,1000.66
2018-11-04T23:53:04.927Z,1000.71
2018-11-04T23:54:19.232Z,1000.67
2018-11-04T23:55:33.509Z,1000.69
2018-11-04T23:56:47.770Z,1000.75
2018-11-04T23:58:01.333Z,1000.73
2018-11-04T23:59:15.342Z,1000.67
